sensor_id;sensor_type;location;lat;lon;timestamp;P1;durP1;ratioP1;P2;durP2;ratioP2
68718;SDS011;55696;52.138;5.444;2022-08-03T00:01:27;7.10;;;1.80;;
68718;SDS011;55696;52.138;5.444;2022-08-03T00:03:54;5.38;;;1.25;;
68718;SDS011;55696;52.138;5.444;2022-08-03T00:06:21;5.70;;;1.50;;
68718;SDS011;55696;52.138;5.444;2022-08-03T00:08:48;5.32;;;1.40;;
68718;SDS011;55696;52.138;5.444;2022-08-03T00:11:14;10.07;;;2.45;;
68718;SDS011;55696;52.138;5.444;2022-08-03T00:13:41;3.93;;;1.43;;
68718;SDS011;55696;52.138;5.444;2022-08-03T00:16:08;5.20;;;1.30;;
68718;SDS011;55696;52.138;5.444;2022-08-03T00:18:36;5.43;;;1.90;;
68718;SDS011;55696;52.138;5.444;2022-08-03T00:21:03;5.60;;;1.50;;
68718;SDS011;55696;52.138;5.444;2022-08-03T00:23:30;3.90;;;1.55;;
68718;SDS011;55696;52.138;5.444;2022-08-03T00:26:17;8.83;;;1.60;;
68718;SDS011;55696;52.138;5.444;2022-08-03T00:28:44;7.10;;;1.75;;
68718;SDS011;55696;52.138;5.444;2022-08-03T00:31:10;6.55;;;1.75;;
68718;SDS011;55696;52.138;5.444;2022-08-03T00:33:38;7.50;;;1.85;;
68718;SDS011;55696;52.138;5.444;2022-08-03T00:36:26;4.63;;;1.25;;
68718;SDS011;55696;52.138;5.444;2022-08-03T00:38:53;7.83;;;1.87;;
68718;SDS011;55696;52.138;5.444;2022-08-03T00:41:21;5.72;;;1.55;;
68718;SDS011;55696;52.138;5.444;2022-08-03T00:43:48;6.40;;;1.95;;
68718;SDS011;55696;52.138;5.444;2022-08-03T00:46:15;6.95;;;1.50;;
68718;SDS011;55696;52.138;5.444;2022-08-03T00:48:47;7.30;;;1.70;;
68718;SDS011;55696;52.138;5.444;2022-08-03T00:51:15;5.70;;;1.80;;
68718;SDS011;55696;52.138;5.444;2022-08-03T00:53:42;9.07;;;2.38;;
68718;SDS011;55696;52.138;5.444;2022-08-03T00:56:11;8.32;;;2.53;;
68718;SDS011;55696;52.138;5.444;2022-08-03T00:58:39;8.18;;;2.58;;
68718;SDS011;55696;52.138;5.444;2022-08-03T01:01:08;5.82;;;1.58;;
68718;SDS011;55696;52.138;5.444;2022-08-03T01:03:35;6.57;;;1.77;;
68718;SDS011;55696;52.138;5.444;2022-08-03T01:11:31;7.20;;;1.63;;
68718;SDS011;55696;52.138;5.444;2022-08-03T01:14:29;7.10;;;1.85;;
68718;SDS011;55696;52.138;5.444;2022-08-03T01:22:41;7.05;;;2.03;;
68718;SDS011;55696;52.138;5.444;2022-08-03T01:31:28;7.13;;;1.87;;
68718;SDS011;55696;52.138;5.444;2022-08-03T01:34:54;5.10;;;1.60;;
68718;SDS011;55696;52.138;5.444;2022-08-03T01:37:40;4.55;;;1.83;;
68718;SDS011;55696;52.138;5.444;2022-08-03T01:40:18;7.68;;;1.92;;
68718;SDS011;55696;52.138;5.444;2022-08-03T01:42:46;5.07;;;2.10;;
68718;SDS011;55696;52.138;5.444;2022-08-03T01:45:15;5.53;;;1.80;;
68718;SDS011;55696;52.138;5.444;2022-08-03T01:47:44;8.73;;;2.75;;
68718;SDS011;55696;52.138;5.444;2022-08-03T01:50:12;7.43;;;2.05;;
68718;SDS011;55696;52.138;5.444;2022-08-03T01:52:43;5.65;;;1.83;;
68718;SDS011;55696;52.138;5.444;2022-08-03T01:55:11;7.65;;;2.10;;
68718;SDS011;55696;52.138;5.444;2022-08-03T01:57:39;7.57;;;1.90;;
68718;SDS011;55696;52.138;5.444;2022-08-03T02:00:29;5.22;;;1.70;;
68718;SDS011;55696;52.138;5.444;2022-08-03T02:02:57;5.20;;;2.03;;
68718;SDS011;55696;52.138;5.444;2022-08-03T02:05:25;9.32;;;2.25;;
68718;SDS011;55696;52.138;5.444;2022-08-03T02:07:53;7.90;;;2.10;;
68718;SDS011;55696;52.138;5.444;2022-08-03T02:10:21;6.80;;;2.00;;
68718;SDS011;55696;52.138;5.444;2022-08-03T02:13:01;6.97;;;2.03;;
68718;SDS011;55696;52.138;5.444;2022-08-03T02:15:30;9.23;;;2.70;;
68718;SDS011;55696;52.138;5.444;2022-08-03T02:17:59;10.77;;;2.33;;
68718;SDS011;55696;52.138;5.444;2022-08-03T02:20:28;8.63;;;2.00;;
68718;SDS011;55696;52.138;5.444;2022-08-03T02:22:58;7.33;;;2.30;;
68718;SDS011;55696;52.138;5.444;2022-08-03T02:25:24;10.77;;;2.53;;
68718;SDS011;55696;52.138;5.444;2022-08-03T02:27:54;10.35;;;2.67;;
68718;SDS011;55696;52.138;5.444;2022-08-03T02:30:28;8.25;;;2.40;;
68718;SDS011;55696;52.138;5.444;2022-08-03T02:32:59;10.13;;;2.72;;
68718;SDS011;55696;52.138;5.444;2022-08-03T02:35:27;9.87;;;2.10;;
68718;SDS011;55696;52.138;5.444;2022-08-03T02:37:57;12.70;;;2.83;;
68718;SDS011;55696;52.138;5.444;2022-08-03T02:40:27;7.30;;;2.20;;
68718;SDS011;55696;52.138;5.444;2022-08-03T02:43:01;10.13;;;2.35;;
68718;SDS011;55696;52.138;5.444;2022-08-03T02:45:32;8.32;;;2.45;;
68718;SDS011;55696;52.138;5.444;2022-08-03T02:48:02;11.53;;;2.23;;
68718;SDS011;55696;52.138;5.444;2022-08-03T02:50:32;7.68;;;2.20;;
68718;SDS011;55696;52.138;5.444;2022-08-03T02:53:00;12.32;;;2.58;;
68718;SDS011;55696;52.138;5.444;2022-08-03T02:55:28;9.35;;;2.50;;
68718;SDS011;55696;52.138;5.444;2022-08-03T02:57:56;13.52;;;2.90;;
68718;SDS011;55696;52.138;5.444;2022-08-03T03:00:26;12.27;;;2.27;;
68718;SDS011;55696;52.138;5.444;2022-08-03T03:02:56;8.50;;;3.00;;
68718;SDS011;55696;52.138;5.444;2022-08-03T03:05:26;5.57;;;2.20;;
68718;SDS011;55696;52.138;5.444;2022-08-03T03:08:14;10.60;;;2.40;;
68718;SDS011;55696;52.138;5.444;2022-08-03T03:10:51;12.25;;;2.40;;
68718;SDS011;55696;52.138;5.444;2022-08-03T03:13:21;7.20;;;2.07;;
68718;SDS011;55696;52.138;5.444;2022-08-03T03:15:48;10.45;;;2.20;;
68718;SDS011;55696;52.138;5.444;2022-08-03T03:18:17;10.95;;;2.03;;
68718;SDS011;55696;52.138;5.444;2022-08-03T03:20:48;8.43;;;2.38;;
68718;SDS011;55696;52.138;5.444;2022-08-03T03:23:17;8.32;;;2.70;;
68718;SDS011;55696;52.138;5.444;2022-08-03T03:25:46;5.70;;;2.10;;
68718;SDS011;55696;52.138;5.444;2022-08-03T03:28:14;11.60;;;2.38;;
68718;SDS011;55696;52.138;5.444;2022-08-03T03:30:41;8.50;;;2.47;;
68718;SDS011;55696;52.138;5.444;2022-08-03T03:33:08;11.52;;;2.50;;
68718;SDS011;55696;52.138;5.444;2022-08-03T03:35:35;9.93;;;2.55;;
68718;SDS011;55696;52.138;5.444;2022-08-03T03:38:05;12.33;;;2.40;;
68718;SDS011;55696;52.138;5.444;2022-08-03T03:40:33;11.10;;;2.03;;
68718;SDS011;55696;52.138;5.444;2022-08-03T03:43:01;11.23;;;2.60;;
68718;SDS011;55696;52.138;5.444;2022-08-03T03:45:33;10.20;;;2.70;;
68718;SDS011;55696;52.138;5.444;2022-08-03T03:48:01;8.32;;;2.88;;
68718;SDS011;55696;52.138;5.444;2022-08-03T03:50:33;8.73;;;2.13;;
68718;SDS011;55696;52.138;5.444;2022-08-03T03:53:00;13.38;;;3.25;;
68718;SDS011;55696;52.138;5.444;2022-08-03T03:55:28;6.70;;;2.90;;
68718;SDS011;55696;52.138;5.444;2022-08-03T03:57:55;9.00;;;2.83;;
68718;SDS011;55696;52.138;5.444;2022-08-03T04:00:22;9.40;;;2.63;;
68718;SDS011;55696;52.138;5.444;2022-08-03T04:02:49;6.27;;;2.27;;
68718;SDS011;55696;52.138;5.444;2022-08-03T04:05:15;10.23;;;2.03;;
68718;SDS011;55696;52.138;5.444;2022-08-03T04:11:02;9.50;;;2.20;;
68718;SDS011;55696;52.138;5.444;2022-08-03T04:13:39;12.32;;;2.65;;
68718;SDS011;55696;52.138;5.444;2022-08-03T04:16:09;7.97;;;2.17;;
68718;SDS011;55696;52.138;5.444;2022-08-03T04:18:40;9.80;;;2.33;;
68718;SDS011;55696;52.138;5.444;2022-08-03T04:21:10;10.77;;;2.60;;
68718;SDS011;55696;52.138;5.444;2022-08-03T04:23:40;10.10;;;2.85;;
68718;SDS011;55696;52.138;5.444;2022-08-03T04:26:12;9.40;;;2.38;;
68718;SDS011;55696;52.138;5.444;2022-08-03T04:28:43;12.53;;;2.60;;
68718;SDS011;55696;52.138;5.444;2022-08-03T04:31:12;6.15;;;2.58;;
68718;SDS011;55696;52.138;5.444;2022-08-03T04:33:42;12.18;;;2.75;;
68718;SDS011;55696;52.138;5.444;2022-08-03T04:36:11;13.68;;;2.55;;
68718;SDS011;55696;52.138;5.444;2022-08-03T04:39:02;11.90;;;3.08;;
68718;SDS011;55696;52.138;5.444;2022-08-03T04:41:31;7.37;;;2.67;;
68718;SDS011;55696;52.138;5.444;2022-08-03T04:44:20;12.68;;;2.38;;
68718;SDS011;55696;52.138;5.444;2022-08-03T04:46:54;12.75;;;2.92;;
68718;SDS011;55696;52.138;5.444;2022-08-03T04:49:22;12.73;;;3.90;;
68718;SDS011;55696;52.138;5.444;2022-08-03T04:51:50;10.40;;;3.20;;
68718;SDS011;55696;52.138;5.444;2022-08-03T04:54:18;11.17;;;2.53;;
68718;SDS011;55696;52.138;5.444;2022-08-03T04:56:44;11.60;;;3.28;;
68718;SDS011;55696;52.138;5.444;2022-08-03T04:59:11;9.77;;;3.28;;
68718;SDS011;55696;52.138;5.444;2022-08-03T05:01:38;13.88;;;3.20;;
68718;SDS011;55696;52.138;5.444;2022-08-03T05:04:07;8.02;;;3.17;;
68718;SDS011;55696;52.138;5.444;2022-08-03T05:06:34;10.20;;;3.00;;
68718;SDS011;55696;52.138;5.444;2022-08-03T05:09:00;11.75;;;2.55;;
68718;SDS011;55696;52.138;5.444;2022-08-03T05:11:29;12.35;;;3.53;;
68718;SDS011;55696;52.138;5.444;2022-08-03T05:13:56;18.35;;;3.40;;
68718;SDS011;55696;52.138;5.444;2022-08-03T05:16:22;13.57;;;2.90;;
68718;SDS011;55696;52.138;5.444;2022-08-03T05:18:50;16.87;;;3.13;;
68718;SDS011;55696;52.138;5.444;2022-08-03T05:21:17;9.20;;;3.03;;
68718;SDS011;55696;52.138;5.444;2022-08-03T05:23:44;10.20;;;2.95;;
68718;SDS011;55696;52.138;5.444;2022-08-03T05:26:11;8.10;;;2.78;;
68718;SDS011;55696;52.138;5.444;2022-08-03T05:28:37;9.57;;;2.75;;
68718;SDS011;55696;52.138;5.444;2022-08-03T05:31:16;9.70;;;2.50;;
68718;SDS011;55696;52.138;5.444;2022-08-03T05:33:43;11.40;;;2.80;;
68718;SDS011;55696;52.138;5.444;2022-08-03T05:36:09;14.52;;;3.75;;
68718;SDS011;55696;52.138;5.444;2022-08-03T05:38:36;14.38;;;3.45;;
68718;SDS011;55696;52.138;5.444;2022-08-03T05:41:03;17.02;;;2.75;;
68718;SDS011;55696;52.138;5.444;2022-08-03T05:43:52;9.00;;;3.20;;
68718;SDS011;55696;52.138;5.444;2022-08-03T05:46:20;11.50;;;3.08;;
68718;SDS011;55696;52.138;5.444;2022-08-03T05:48:47;11.38;;;3.13;;
68718;SDS011;55696;52.138;5.444;2022-08-03T05:51:15;19.05;;;3.40;;
68718;SDS011;55696;52.138;5.444;2022-08-03T05:53:42;14.60;;;3.08;;
68718;SDS011;55696;52.138;5.444;2022-08-03T05:56:09;14.37;;;3.30;;
68718;SDS011;55696;52.138;5.444;2022-08-03T05:58:40;13.90;;;3.95;;
68718;SDS011;55696;52.138;5.444;2022-08-03T06:01:11;18.27;;;3.25;;
68718;SDS011;55696;52.138;5.444;2022-08-03T06:03:38;20.92;;;3.90;;
68718;SDS011;55696;52.138;5.444;2022-08-03T06:06:04;15.65;;;3.75;;
68718;SDS011;55696;52.138;5.444;2022-08-03T06:08:31;14.20;;;3.60;;
68718;SDS011;55696;52.138;5.444;2022-08-03T06:10:58;11.02;;;3.13;;
68718;SDS011;55696;52.138;5.444;2022-08-03T06:13:24;10.55;;;3.38;;
68718;SDS011;55696;52.138;5.444;2022-08-03T06:15:51;11.50;;;3.17;;
68718;SDS011;55696;52.138;5.444;2022-08-03T06:18:18;17.50;;;3.33;;
68718;SDS011;55696;52.138;5.444;2022-08-03T06:20:45;16.07;;;3.67;;
68718;SDS011;55696;52.138;5.444;2022-08-03T06:23:14;15.48;;;3.20;;
68718;SDS011;55696;52.138;5.444;2022-08-03T06:25:43;13.77;;;3.28;;
68718;SDS011;55696;52.138;5.444;2022-08-03T06:28:10;13.90;;;3.20;;
68718;SDS011;55696;52.138;5.444;2022-08-03T06:30:59;14.25;;;3.55;;
68718;SDS011;55696;52.138;5.444;2022-08-03T06:33:26;11.90;;;2.80;;
68718;SDS011;55696;52.138;5.444;2022-08-03T06:36:12;12.27;;;2.92;;
68718;SDS011;55696;52.138;5.444;2022-08-03T06:38:39;11.02;;;2.70;;
68718;SDS011;55696;52.138;5.444;2022-08-03T06:41:06;12.25;;;3.10;;
68718;SDS011;55696;52.138;5.444;2022-08-03T06:43:32;12.40;;;3.08;;
68718;SDS011;55696;52.138;5.444;2022-08-03T06:46:22;14.97;;;3.50;;
68718;SDS011;55696;52.138;5.444;2022-08-03T06:48:51;12.02;;;3.45;;
68718;SDS011;55696;52.138;5.444;2022-08-03T06:51:18;16.50;;;3.42;;
68718;SDS011;55696;52.138;5.444;2022-08-03T06:53:44;14.52;;;3.30;;
68718;SDS011;55696;52.138;5.444;2022-08-03T06:56:11;10.10;;;2.47;;
68718;SDS011;55696;52.138;5.444;2022-08-03T06:58:38;10.40;;;2.57;;
68718;SDS011;55696;52.138;5.444;2022-08-03T07:01:05;13.60;;;3.13;;
68718;SDS011;55696;52.138;5.444;2022-08-03T07:03:31;12.15;;;3.33;;
68718;SDS011;55696;52.138;5.444;2022-08-03T07:05:58;15.50;;;3.35;;
68718;SDS011;55696;52.138;5.444;2022-08-03T07:08:25;24.60;;;3.85;;
68718;SDS011;55696;52.138;5.444;2022-08-03T07:10:59;12.27;;;2.60;;
68718;SDS011;55696;52.138;5.444;2022-08-03T07:13:26;14.68;;;3.67;;
68718;SDS011;55696;52.138;5.444;2022-08-03T07:15:53;13.02;;;3.45;;
68718;SDS011;55696;52.138;5.444;2022-08-03T07:18:22;19.67;;;3.22;;
68718;SDS011;55696;52.138;5.444;2022-08-03T07:20:55;13.00;;;2.83;;
68718;SDS011;55696;52.138;5.444;2022-08-03T07:23:23;25.40;;;4.37;;
68718;SDS011;55696;52.138;5.444;2022-08-03T07:25:50;18.40;;;3.10;;
68718;SDS011;55696;52.138;5.444;2022-08-03T07:28:18;23.55;;;3.20;;
68718;SDS011;55696;52.138;5.444;2022-08-03T07:30:45;23.42;;;3.63;;
68718;SDS011;55696;52.138;5.444;2022-08-03T07:33:12;15.50;;;3.45;;
68718;SDS011;55696;52.138;5.444;2022-08-03T07:35:39;16.20;;;3.20;;
68718;SDS011;55696;52.138;5.444;2022-08-03T07:38:06;10.30;;;2.65;;
68718;SDS011;55696;52.138;5.444;2022-08-03T07:40:33;18.38;;;3.30;;
68718;SDS011;55696;52.138;5.444;2022-08-03T07:43:00;16.45;;;3.30;;
68718;SDS011;55696;52.138;5.444;2022-08-03T07:45:28;22.80;;;3.55;;
68718;SDS011;55696;52.138;5.444;2022-08-03T07:47:56;16.87;;;3.40;;
68718;SDS011;55696;52.138;5.444;2022-08-03T07:50:23;17.50;;;3.75;;
68718;SDS011;55696;52.138;5.444;2022-08-03T07:52:50;18.75;;;3.38;;
68718;SDS011;55696;52.138;5.444;2022-08-03T07:55:19;9.65;;;2.65;;
68718;SDS011;55696;52.138;5.444;2022-08-03T07:58:06;10.23;;;2.95;;
68718;SDS011;55696;52.138;5.444;2022-08-03T08:00:37;15.13;;;2.87;;
68718;SDS011;55696;52.138;5.444;2022-08-03T08:03:04;16.35;;;3.15;;
68718;SDS011;55696;52.138;5.444;2022-08-03T08:05:30;11.10;;;2.40;;
68718;SDS011;55696;52.138;5.444;2022-08-03T08:07:57;18.52;;;3.22;;
68718;SDS011;55696;52.138;5.444;2022-08-03T08:10:25;13.98;;;3.10;;
68718;SDS011;55696;52.138;5.444;2022-08-03T08:12:52;16.97;;;3.23;;
68718;SDS011;55696;52.138;5.444;2022-08-03T08:15:19;15.60;;;3.42;;
68718;SDS011;55696;52.138;5.444;2022-08-03T08:17:47;13.85;;;2.88;;
68718;SDS011;55696;52.138;5.444;2022-08-03T08:20:16;12.00;;;2.45;;
68718;SDS011;55696;52.138;5.444;2022-08-03T08:22:56;13.77;;;3.17;;
68718;SDS011;55696;52.138;5.444;2022-08-03T08:25:27;18.70;;;3.33;;
68718;SDS011;55696;52.138;5.444;2022-08-03T08:27:54;14.30;;;2.97;;
68718;SDS011;55696;52.138;5.444;2022-08-03T08:30:41;19.02;;;4.20;;
68718;SDS011;55696;52.138;5.444;2022-08-03T08:33:08;13.55;;;3.05;;
68718;SDS011;55696;52.138;5.444;2022-08-03T08:35:49;14.15;;;3.05;;
68718;SDS011;55696;52.138;5.444;2022-08-03T08:38:18;19.77;;;3.43;;
68718;SDS011;55696;52.138;5.444;2022-08-03T08:40:44;14.55;;;3.22;;
68718;SDS011;55696;52.138;5.444;2022-08-03T08:43:11;19.80;;;3.83;;
68718;SDS011;55696;52.138;5.444;2022-08-03T08:45:39;15.85;;;3.65;;
68718;SDS011;55696;52.138;5.444;2022-08-03T08:48:06;13.77;;;2.60;;
68718;SDS011;55696;52.138;5.444;2022-08-03T08:50:36;14.70;;;3.33;;
68718;SDS011;55696;52.138;5.444;2022-08-03T08:53:04;18.40;;;2.83;;
68718;SDS011;55696;52.138;5.444;2022-08-03T08:55:36;17.70;;;3.63;;
68718;SDS011;55696;52.138;5.444;2022-08-03T08:58:23;13.65;;;2.65;;
68718;SDS011;55696;52.138;5.444;2022-08-03T09:00:53;13.15;;;2.60;;
68718;SDS011;55696;52.138;5.444;2022-08-03T09:03:20;10.70;;;2.67;;
68718;SDS011;55696;52.138;5.444;2022-08-03T09:05:55;16.42;;;2.55;;
68718;SDS011;55696;52.138;5.444;2022-08-03T09:08:24;17.45;;;3.03;;
68718;SDS011;55696;52.138;5.444;2022-08-03T09:10:51;19.08;;;3.05;;
68718;SDS011;55696;52.138;5.444;2022-08-03T09:13:18;17.70;;;3.35;;
68718;SDS011;55696;52.138;5.444;2022-08-03T09:15:44;15.70;;;2.80;;
68718;SDS011;55696;52.138;5.444;2022-08-03T09:18:29;21.52;;;3.50;;
68718;SDS011;55696;52.138;5.444;2022-08-03T09:24:00;15.88;;;3.20;;
68718;SDS011;55696;52.138;5.444;2022-08-03T09:26:31;16.10;;;2.78;;
68718;SDS011;55696;52.138;5.444;2022-08-03T09:29:03;14.37;;;2.93;;
68718;SDS011;55696;52.138;5.444;2022-08-03T09:31:42;14.63;;;3.03;;
68718;SDS011;55696;52.138;5.444;2022-08-03T09:34:14;16.42;;;3.30;;
68718;SDS011;55696;52.138;5.444;2022-08-03T09:36:43;14.52;;;3.10;;
68718;SDS011;55696;52.138;5.444;2022-08-03T09:39:21;17.17;;;2.90;;
68718;SDS011;55696;52.138;5.444;2022-08-03T09:42:11;10.27;;;2.70;;
68718;SDS011;55696;52.138;5.444;2022-08-03T09:44:44;12.23;;;2.90;;
68718;SDS011;55696;52.138;5.444;2022-08-03T09:47:13;11.65;;;2.63;;
68718;SDS011;55696;52.138;5.444;2022-08-03T09:49:42;15.30;;;2.80;;
68718;SDS011;55696;52.138;5.444;2022-08-03T09:52:37;16.90;;;3.15;;
68718;SDS011;55696;52.138;5.444;2022-08-03T09:55:17;12.73;;;2.53;;
68718;SDS011;55696;52.138;5.444;2022-08-03T09:58:10;18.92;;;4.00;;
68718;SDS011;55696;52.138;5.444;2022-08-03T10:03:24;15.15;;;2.78;;
68718;SDS011;55696;52.138;5.444;2022-08-03T10:05:52;15.23;;;3.03;;
68718;SDS011;55696;52.138;5.444;2022-08-03T10:08:24;16.57;;;2.73;;
68718;SDS011;55696;52.138;5.444;2022-08-03T10:10:52;12.40;;;2.33;;
68718;SDS011;55696;52.138;5.444;2022-08-03T10:13:23;13.57;;;2.78;;
68718;SDS011;55696;52.138;5.444;2022-08-03T10:15:50;16.95;;;3.13;;
68718;SDS011;55696;52.138;5.444;2022-08-03T10:18:37;13.43;;;2.60;;
68718;SDS011;55696;52.138;5.444;2022-08-03T10:21:06;16.57;;;2.90;;
68718;SDS011;55696;52.138;5.444;2022-08-03T10:23:35;11.23;;;2.22;;
68718;SDS011;55696;52.138;5.444;2022-08-03T10:26:04;9.77;;;2.50;;
68718;SDS011;55696;52.138;5.444;2022-08-03T10:28:39;14.93;;;3.22;;
68718;SDS011;55696;52.138;5.444;2022-08-03T10:31:11;11.88;;;2.75;;
68718;SDS011;55696;52.138;5.444;2022-08-03T10:33:42;14.23;;;2.53;;
68718;SDS011;55696;52.138;5.444;2022-08-03T10:36:17;11.30;;;2.20;;
68718;SDS011;55696;52.138;5.444;2022-08-03T10:38:48;18.65;;;3.00;;
68718;SDS011;55696;52.138;5.444;2022-08-03T10:41:20;10.82;;;2.58;;
68718;SDS011;55696;52.138;5.444;2022-08-03T10:43:53;11.40;;;2.22;;
68718;SDS011;55696;52.138;5.444;2022-08-03T10:46:24;10.20;;;2.23;;
68718;SDS011;55696;52.138;5.444;2022-08-03T10:48:52;13.05;;;2.50;;
68718;SDS011;55696;52.138;5.444;2022-08-03T10:51:19;13.45;;;2.47;;
68718;SDS011;55696;52.138;5.444;2022-08-03T10:53:46;9.95;;;2.95;;
68718;SDS011;55696;52.138;5.444;2022-08-03T11:02:11;13.38;;;2.33;;
68718;SDS011;55696;52.138;5.444;2022-08-03T11:04:39;11.38;;;2.78;;
68718;SDS011;55696;52.138;5.444;2022-08-03T11:07:20;11.57;;;1.90;;
68718;SDS011;55696;52.138;5.444;2022-08-03T11:09:50;9.07;;;2.00;;
68718;SDS011;55696;52.138;5.444;2022-08-03T11:12:22;12.13;;;2.20;;
68718;SDS011;55696;52.138;5.444;2022-08-03T11:15:15;15.88;;;2.05;;
68718;SDS011;55696;52.138;5.444;2022-08-03T11:18:07;15.02;;;2.30;;
68718;SDS011;55696;52.138;5.444;2022-08-03T11:20:44;14.35;;;4.43;;
68718;SDS011;55696;52.138;5.444;2022-08-03T11:23:12;12.93;;;2.88;;
68718;SDS011;55696;52.138;5.444;2022-08-03T11:28:34;11.80;;;2.45;;
68718;SDS011;55696;52.138;5.444;2022-08-03T11:34:11;11.50;;;2.38;;
68718;SDS011;55696;52.138;5.444;2022-08-03T11:39:49;9.40;;;2.13;;
68718;SDS011;55696;52.138;5.444;2022-08-03T11:44:48;11.63;;;2.17;;
68718;SDS011;55696;52.138;5.444;2022-08-03T11:47:15;10.07;;;2.35;;
68718;SDS011;55696;52.138;5.444;2022-08-03T11:49:45;10.30;;;2.08;;
68718;SDS011;55696;52.138;5.444;2022-08-03T11:52:13;14.87;;;2.30;;
68718;SDS011;55696;52.138;5.444;2022-08-03T11:54:41;9.32;;;2.20;;
68718;SDS011;55696;52.138;5.444;2022-08-03T11:57:08;11.48;;;2.17;;
68718;SDS011;55696;52.138;5.444;2022-08-03T11:59:36;16.52;;;2.42;;
68718;SDS011;55696;52.138;5.444;2022-08-03T12:02:07;13.70;;;2.42;;
68718;SDS011;55696;52.138;5.444;2022-08-03T12:04:55;10.67;;;2.07;;
68718;SDS011;55696;52.138;5.444;2022-08-03T12:07:27;12.60;;;2.40;;
68718;SDS011;55696;52.138;5.444;2022-08-03T12:10:15;12.07;;;2.00;;
68718;SDS011;55696;52.138;5.444;2022-08-03T12:12:42;11.82;;;1.95;;
68718;SDS011;55696;52.138;5.444;2022-08-03T12:15:12;9.52;;;2.33;;
68718;SDS011;55696;52.138;5.444;2022-08-03T12:17:39;9.67;;;2.20;;
68718;SDS011;55696;52.138;5.444;2022-08-03T12:20:07;7.78;;;1.55;;
68718;SDS011;55696;52.138;5.444;2022-08-03T12:22:36;9.85;;;2.25;;
68718;SDS011;55696;52.138;5.444;2022-08-03T12:25:04;8.07;;;2.15;;
68718;SDS011;55696;52.138;5.444;2022-08-03T12:27:32;7.53;;;2.22;;
68718;SDS011;55696;52.138;5.444;2022-08-03T12:29:59;8.67;;;2.03;;
68718;SDS011;55696;52.138;5.444;2022-08-03T12:32:27;8.38;;;2.00;;
68718;SDS011;55696;52.138;5.444;2022-08-03T12:34:55;9.25;;;2.10;;
68718;SDS011;55696;52.138;5.444;2022-08-03T12:37:26;9.13;;;1.75;;
68718;SDS011;55696;52.138;5.444;2022-08-03T12:39:54;11.70;;;2.58;;
68718;SDS011;55696;52.138;5.444;2022-08-03T12:42:32;7.20;;;1.80;;
68718;SDS011;55696;52.138;5.444;2022-08-03T12:45:19;7.95;;;1.70;;
68718;SDS011;55696;52.138;5.444;2022-08-03T12:47:51;4.65;;;1.67;;
68718;SDS011;55696;52.138;5.444;2022-08-03T12:50:23;6.03;;;1.85;;
68718;SDS011;55696;52.138;5.444;2022-08-03T12:52:58;8.52;;;1.80;;
68718;SDS011;55696;52.138;5.444;2022-08-03T12:55:26;5.10;;;1.80;;
68718;SDS011;55696;52.138;5.444;2022-08-03T12:58:29;7.13;;;2.17;;
68718;SDS011;55696;52.138;5.444;2022-08-03T13:01:01;8.98;;;2.10;;
68718;SDS011;55696;52.138;5.444;2022-08-03T13:03:39;6.20;;;1.95;;
68718;SDS011;55696;52.138;5.444;2022-08-03T13:06:12;8.15;;;2.20;;
68718;SDS011;55696;52.138;5.444;2022-08-03T13:08:39;6.13;;;2.27;;
68718;SDS011;55696;52.138;5.444;2022-08-03T13:11:20;6.88;;;1.95;;
68718;SDS011;55696;52.138;5.444;2022-08-03T13:14:08;5.65;;;2.05;;
68718;SDS011;55696;52.138;5.444;2022-08-03T13:16:41;6.80;;;2.00;;
68718;SDS011;55696;52.138;5.444;2022-08-03T13:19:08;6.53;;;2.10;;
68718;SDS011;55696;52.138;5.444;2022-08-03T13:21:41;6.47;;;1.67;;
68718;SDS011;55696;52.138;5.444;2022-08-03T13:24:29;7.82;;;2.22;;
68718;SDS011;55696;52.138;5.444;2022-08-03T13:26:57;5.88;;;2.15;;
68718;SDS011;55696;52.138;5.444;2022-08-03T13:29:24;7.32;;;1.90;;
68718;SDS011;55696;52.138;5.444;2022-08-03T13:31:51;8.73;;;2.67;;
68718;SDS011;55696;52.138;5.444;2022-08-03T13:34:17;6.30;;;2.33;;
68718;SDS011;55696;52.138;5.444;2022-08-03T13:36:49;8.88;;;2.55;;
68718;SDS011;55696;52.138;5.444;2022-08-03T13:39:35;7.53;;;2.30;;
68718;SDS011;55696;52.138;5.444;2022-08-03T13:42:22;5.75;;;1.90;;
68718;SDS011;55696;52.138;5.444;2022-08-03T13:44:49;6.28;;;2.20;;
68718;SDS011;55696;52.138;5.444;2022-08-03T13:47:15;5.80;;;1.93;;
68718;SDS011;55696;52.138;5.444;2022-08-03T13:49:43;3.55;;;1.90;;
68718;SDS011;55696;52.138;5.444;2022-08-03T13:52:26;5.65;;;2.53;;
68718;SDS011;55696;52.138;5.444;2022-08-03T13:54:53;5.45;;;2.28;;
68718;SDS011;55696;52.138;5.444;2022-08-03T13:57:20;11.70;;;2.92;;
68718;SDS011;55696;52.138;5.444;2022-08-03T14:00:07;6.07;;;2.30;;
68718;SDS011;55696;52.138;5.444;2022-08-03T14:02:34;6.85;;;2.70;;
68718;SDS011;55696;52.138;5.444;2022-08-03T14:05:01;4.45;;;2.40;;
68718;SDS011;55696;52.138;5.444;2022-08-03T14:07:27;6.95;;;2.25;;
68718;SDS011;55696;52.138;5.444;2022-08-03T14:09:54;7.70;;;2.20;;
68718;SDS011;55696;52.138;5.444;2022-08-03T14:12:22;5.17;;;2.10;;
68718;SDS011;55696;52.138;5.444;2022-08-03T14:14:48;5.90;;;2.08;;
68718;SDS011;55696;52.138;5.444;2022-08-03T14:17:15;5.50;;;2.45;;
68718;SDS011;55696;52.138;5.444;2022-08-03T14:19:42;6.60;;;1.92;;
68718;SDS011;55696;52.138;5.444;2022-08-03T14:22:18;9.60;;;2.50;;
68718;SDS011;55696;52.138;5.444;2022-08-03T14:24:46;5.13;;;1.90;;
68718;SDS011;55696;52.138;5.444;2022-08-03T14:27:14;5.55;;;2.20;;
68718;SDS011;55696;52.138;5.444;2022-08-03T14:29:41;8.13;;;2.05;;
68718;SDS011;55696;52.138;5.444;2022-08-03T14:32:08;13.10;;;3.38;;
68718;SDS011;55696;52.138;5.444;2022-08-03T14:34:39;5.88;;;2.25;;
68718;SDS011;55696;52.138;5.444;2022-08-03T14:37:06;7.20;;;2.50;;
68718;SDS011;55696;52.138;5.444;2022-08-03T14:39:33;4.63;;;2.10;;
68718;SDS011;55696;52.138;5.444;2022-08-03T14:42:20;5.45;;;2.53;;
68718;SDS011;55696;52.138;5.444;2022-08-03T14:44:46;6.78;;;2.10;;
68718;SDS011;55696;52.138;5.444;2022-08-03T14:47:13;7.28;;;1.90;;
68718;SDS011;55696;52.138;5.444;2022-08-03T14:49:40;8.37;;;1.90;;
68718;SDS011;55696;52.138;5.444;2022-08-03T14:52:27;4.60;;;1.42;;
68718;SDS011;55696;52.138;5.444;2022-08-03T14:54:54;6.78;;;2.13;;
68718;SDS011;55696;52.138;5.444;2022-08-03T14:57:21;6.00;;;2.25;;
68718;SDS011;55696;52.138;5.444;2022-08-03T14:59:48;5.90;;;2.33;;
68718;SDS011;55696;52.138;5.444;2022-08-03T15:02:22;7.13;;;2.17;;
68718;SDS011;55696;52.138;5.444;2022-08-03T15:04:50;7.25;;;1.80;;
68718;SDS011;55696;52.138;5.444;2022-08-03T15:07:17;6.97;;;2.00;;
68718;SDS011;55696;52.138;5.444;2022-08-03T15:09:44;5.68;;;2.00;;
68718;SDS011;55696;52.138;5.444;2022-08-03T15:12:11;7.70;;;2.03;;
68718;SDS011;55696;52.138;5.444;2022-08-03T15:14:38;7.97;;;1.70;;
68718;SDS011;55696;52.138;5.444;2022-08-03T15:17:05;7.63;;;1.75;;
68718;SDS011;55696;52.138;5.444;2022-08-03T15:19:32;4.80;;;2.28;;
68718;SDS011;55696;52.138;5.444;2022-08-03T15:22:18;7.68;;;1.98;;
68718;SDS011;55696;52.138;5.444;2022-08-03T15:25:00;7.57;;;2.05;;
68718;SDS011;55696;52.138;5.444;2022-08-03T15:27:28;7.17;;;1.80;;
68718;SDS011;55696;52.138;5.444;2022-08-03T15:29:54;5.43;;;1.98;;
68718;SDS011;55696;52.138;5.444;2022-08-03T15:32:35;7.45;;;2.10;;
68718;SDS011;55696;52.138;5.444;2022-08-03T15:35:02;5.13;;;1.75;;
68718;SDS011;55696;52.138;5.444;2022-08-03T15:37:29;7.40;;;2.25;;
68718;SDS011;55696;52.138;5.444;2022-08-03T15:39:55;6.57;;;1.80;;
68718;SDS011;55696;52.138;5.444;2022-08-03T15:42:25;5.95;;;1.73;;
68718;SDS011;55696;52.138;5.444;2022-08-03T15:44:53;5.15;;;1.90;;
68718;SDS011;55696;52.138;5.444;2022-08-03T15:47:20;3.42;;;1.60;;